sensor_id;sensor_type;location;lat;lon;timestamp;temperature;humidity
84061;DHT22;74149;44.650;10.926;2023-11-21T00:01:11;10.60;95.00
84061;DHT22;74149;44.650;10.926;2023-11-21T00:03:39;10.40;94.70
84061;DHT22;74149;44.650;10.926;2023-11-21T00:08:36;10.60;92.80
84061;DHT22;74149;44.650;10.926;2023-11-21T00:13:33;10.30;94.40
84061;DHT22;74149;44.650;10.926;2023-11-21T00:16:02;10.30;94.60
84061;DHT22;74149;44.650;10.926;2023-11-21T00:18:31;10.70;95.00
84061;DHT22;74149;44.650;10.926;2023-11-21T00:20:59;10.70;93.00
84061;DHT22;74149;44.650;10.926;2023-11-21T00:23:27;10.00;91.80
84061;DHT22;74149;44.650;10.926;2023-11-21T00:25:56;10.00;94.90
84061;DHT22;74149;44.650;10.926;2023-11-21T00:28:25;10.60;95.10
84061;DHT22;74149;44.650;10.926;2023-11-21T00:33:21;10.10;95.40
84061;DHT22;74149;44.650;10.926;2023-11-21T00:35:49;10.50;95.40
84061;DHT22;74149;44.650;10.926;2023-11-21T00:38:18;10.50;95.70
84061;DHT22;74149;44.650;10.926;2023-11-21T00:40:47;10.30;96.00
84061;DHT22;74149;44.650;10.926;2023-11-21T00:43:15;10.50;95.30
84061;DHT22;74149;44.650;10.926;2023-11-21T00:45:44;10.00;95.20
84061;DHT22;74149;44.650;10.926;2023-11-21T00:50:40;9.90;96.00
84061;DHT22;74149;44.650;10.926;2023-11-21T00:58:07;10.20;96.50
84061;DHT22;74149;44.650;10.926;2023-11-21T01:00:36;10.60;97.20
84061;DHT22;74149;44.650;10.926;2023-11-21T01:03:05;9.80;96.30
84061;DHT22;74149;44.650;10.926;2023-11-21T01:05:34;10.30;96.50
84061;DHT22;74149;44.650;10.926;2023-11-21T01:08:03;10.40;95.40
84061;DHT22;74149;44.650;10.926;2023-11-21T01:10:32;9.40;91.60
84061;DHT22;74149;44.650;10.926;2023-11-21T01:13:02;10.50;95.70
84061;DHT22;74149;44.650;10.926;2023-11-21T01:15:34;9.50;95.80
84061;DHT22;74149;44.650;10.926;2023-11-21T01:22:59;10.20;95.90
84061;DHT22;74149;44.650;10.926;2023-11-21T01:25:28;9.70;95.20
84061;DHT22;74149;44.650;10.926;2023-11-21T01:32:52;10.00;96.40
84061;DHT22;74149;44.650;10.926;2023-11-21T01:37:50;9.80;96.10
84061;DHT22;74149;44.650;10.926;2023-11-21T01:40:19;10.00;96.00
84061;DHT22;74149;44.650;10.926;2023-11-21T01:42:48;9.70;96.20
84061;DHT22;74149;44.650;10.926;2023-11-21T01:45:16;9.90;96.10
84061;DHT22;74149;44.650;10.926;2023-11-21T01:47:45;10.40;95.90
84061;DHT22;74149;44.650;10.926;2023-11-21T01:50:15;10.10;95.60
84061;DHT22;74149;44.650;10.926;2023-11-21T01:52:48;10.30;96.20
84061;DHT22;74149;44.650;10.926;2023-11-21T01:55:17;9.80;95.80
84061;DHT22;74149;44.650;10.926;2023-11-21T01:57:46;10.20;96.10
84061;DHT22;74149;44.650;10.926;2023-11-21T02:00:15;10.30;96.60
84061;DHT22;74149;44.650;10.926;2023-11-21T02:02:44;10.40;96.60
84061;DHT22;74149;44.650;10.926;2023-11-21T02:05:16;10.50;95.90
84061;DHT22;74149;44.650;10.926;2023-11-21T02:07:45;10.10;96.00
84061;DHT22;74149;44.650;10.926;2023-11-21T02:10:19;10.20;96.80
84061;DHT22;74149;44.650;10.926;2023-11-21T02:12:50;9.80;96.50
84061;DHT22;74149;44.650;10.926;2023-11-21T02:15:19;10.00;96.50
84061;DHT22;74149;44.650;10.926;2023-11-21T02:20:18;10.40;95.00
84061;DHT22;74149;44.650;10.926;2023-11-21T02:30:24;10.40;97.20
84061;DHT22;74149;44.650;10.926;2023-11-21T02:32:52;10.40;97.30
84061;DHT22;74149;44.650;10.926;2023-11-21T02:37:49;9.60;95.00
84061;DHT22;74149;44.650;10.926;2023-11-21T02:40:17;10.80;97.80
84061;DHT22;74149;44.650;10.926;2023-11-21T02:42:47;9.60;97.30
84061;DHT22;74149;44.650;10.926;2023-11-21T02:45:18;9.60;97.30
84061;DHT22;74149;44.650;10.926;2023-11-21T02:47:48;10.20;97.50
84061;DHT22;74149;44.650;10.926;2023-11-21T02:52:50;10.20;97.00
84061;DHT22;74149;44.650;10.926;2023-11-21T02:55:18;10.50;97.10
84061;DHT22;74149;44.650;10.926;2023-11-21T02:57:46;10.30;96.90
84061;DHT22;74149;44.650;10.926;2023-11-21T03:00:15;10.60;97.30
84061;DHT22;74149;44.650;10.926;2023-11-21T03:02:44;10.10;97.20
84061;DHT22;74149;44.650;10.926;2023-11-21T03:05:12;10.10;97.20
84061;DHT22;74149;44.650;10.926;2023-11-21T03:07:41;10.50;96.30
84061;DHT22;74149;44.650;10.926;2023-11-21T03:10:09;10.20;96.50
84061;DHT22;74149;44.650;10.926;2023-11-21T03:17:33;9.90;95.30
84061;DHT22;74149;44.650;10.926;2023-11-21T03:20:02;9.90;95.10
84061;DHT22;74149;44.650;10.926;2023-11-21T03:24:58;9.60;92.50
84061;DHT22;74149;44.650;10.926;2023-11-21T03:29:54;10.70;95.20
84061;DHT22;74149;44.650;10.926;2023-11-21T03:34:57;10.20;92.10
84061;DHT22;74149;44.650;10.926;2023-11-21T03:37:26;10.20;95.40
84061;DHT22;74149;44.650;10.926;2023-11-21T03:39:57;10.30;96.20
84061;DHT22;74149;44.650;10.926;2023-11-21T03:42:28;9.70;95.90
84061;DHT22;74149;44.650;10.926;2023-11-21T03:45:01;10.00;95.50
84061;DHT22;74149;44.650;10.926;2023-11-21T03:47:33;10.60;95.70
84061;DHT22;74149;44.650;10.926;2023-11-21T03:50:03;10.10;95.40
84061;DHT22;74149;44.650;10.926;2023-11-21T03:52:34;10.60;95.80
84061;DHT22;74149;44.650;10.926;2023-11-21T03:55:04;9.70;95.90
84061;DHT22;74149;44.650;10.926;2023-11-21T03:57:35;9.90;96.00
84061;DHT22;74149;44.650;10.926;2023-11-21T04:05:08;10.60;96.10
84061;DHT22;74149;44.650;10.926;2023-11-21T04:08:22;9.90;93.30
84061;DHT22;74149;44.650;10.926;2023-11-21T04:10:54;10.40;96.90
84061;DHT22;74149;44.650;10.926;2023-11-21T04:13:23;10.30;96.90
84061;DHT22;74149;44.650;10.926;2023-11-21T04:15:52;9.70;97.10
84061;DHT22;74149;44.650;10.926;2023-11-21T04:20:52;10.00;97.00
84061;DHT22;74149;44.650;10.926;2023-11-21T04:23:21;9.70;97.40
84061;DHT22;74149;44.650;10.926;2023-11-21T04:25:49;9.70;96.60
84061;DHT22;74149;44.650;10.926;2023-11-21T04:28:17;10.00;97.60
84061;DHT22;74149;44.650;10.926;2023-11-21T04:30:46;9.50;97.80
84061;DHT22;74149;44.650;10.926;2023-11-21T04:33:14;9.50;97.70
84061;DHT22;74149;44.650;10.926;2023-11-21T04:38:10;9.60;95.60
84061;DHT22;74149;44.650;10.926;2023-11-21T04:40:38;9.50;96.50
84061;DHT22;74149;44.650;10.926;2023-11-21T04:43:07;9.40;94.90
84061;DHT22;74149;44.650;10.926;2023-11-21T04:45:35;9.70;96.90
84061;DHT22;74149;44.650;10.926;2023-11-21T04:48:03;10.10;96.90
84061;DHT22;74149;44.650;10.926;2023-11-21T04:50:34;9.70;96.70
84061;DHT22;74149;44.650;10.926;2023-11-21T04:53:02;10.00;96.80
84061;DHT22;74149;44.650;10.926;2023-11-21T05:00:25;10.30;96.30
84061;DHT22;74149;44.650;10.926;2023-11-21T05:02:54;10.30;96.40
84061;DHT22;74149;44.650;10.926;2023-11-21T05:05:22;10.30;95.90
84061;DHT22;74149;44.650;10.926;2023-11-21T05:07:50;10.50;96.00
84061;DHT22;74149;44.650;10.926;2023-11-21T05:10:20;10.40;96.60
84061;DHT22;74149;44.650;10.926;2023-11-21T05:12:49;9.50;95.70
84061;DHT22;74149;44.650;10.926;2023-11-21T05:15:17;10.40;96.60
84061;DHT22;74149;44.650;10.926;2023-11-21T05:17:46;10.20;96.30
84061;DHT22;74149;44.650;10.926;2023-11-21T05:22:50;10.50;96.40
84061;DHT22;74149;44.650;10.926;2023-11-21T05:27:46;10.50;96.30
84061;DHT22;74149;44.650;10.926;2023-11-21T05:30:14;10.40;96.00
84061;DHT22;74149;44.650;10.926;2023-11-21T05:32:43;10.00;96.20
84061;DHT22;74149;44.650;10.926;2023-11-21T05:35:13;9.70;93.30
84061;DHT22;74149;44.650;10.926;2023-11-21T05:37:43;9.70;96.20
84061;DHT22;74149;44.650;10.926;2023-11-21T05:42:40;10.20;96.00
84061;DHT22;74149;44.650;10.926;2023-11-21T05:45:09;10.40;96.10
84061;DHT22;74149;44.650;10.926;2023-11-21T05:47:39;9.90;96.30
84061;DHT22;74149;44.650;10.926;2023-11-21T05:50:09;10.40;96.80
84061;DHT22;74149;44.650;10.926;2023-11-21T05:52:39;9.70;96.20
84061;DHT22;74149;44.650;10.926;2023-11-21T05:57:38;9.90;96.00
84061;DHT22;74149;44.650;10.926;2023-11-21T06:00:13;9.80;96.30
84061;DHT22;74149;44.650;10.926;2023-11-21T06:05:24;9.90;96.50
84061;DHT22;74149;44.650;10.926;2023-11-21T06:07:54;10.40;96.50
84061;DHT22;74149;44.650;10.926;2023-11-21T06:12:51;10.10;96.10
84061;DHT22;74149;44.650;10.926;2023-11-21T06:20:19;10.40;96.70
84061;DHT22;74149;44.650;10.926;2023-11-21T06:27:45;10.10;96.40
84061;DHT22;74149;44.650;10.926;2023-11-21T06:32:43;9.70;94.40
84061;DHT22;74149;44.650;10.926;2023-11-21T06:40:11;9.90;98.50
84061;DHT22;74149;44.650;10.926;2023-11-21T06:45:09;9.90;95.30
84061;DHT22;74149;44.650;10.926;2023-11-21T06:52:33;9.50;99.70
84061;DHT22;74149;44.650;10.926;2023-11-21T06:55:01;9.50;99.60
84061;DHT22;74149;44.650;10.926;2023-11-21T07:02:25;9.80;99.90
84061;DHT22;74149;44.650;10.926;2023-11-21T07:07:20;9.30;99.90
84061;DHT22;74149;44.650;10.926;2023-11-21T07:17:12;8.90;99.90
84061;DHT22;74149;44.650;10.926;2023-11-21T07:24:36;9.80;99.80
84061;DHT22;74149;44.650;10.926;2023-11-21T07:27:04;9.10;99.90
84061;DHT22;74149;44.650;10.926;2023-11-21T07:29:32;9.60;99.10
84061;DHT22;74149;44.650;10.926;2023-11-21T07:32:01;9.60;97.80
84061;DHT22;74149;44.650;10.926;2023-11-21T07:36:56;9.20;99.90
84061;DHT22;74149;44.650;10.926;2023-11-21T07:39:24;9.20;99.00
84061;DHT22;74149;44.650;10.926;2023-11-21T07:44:19;10.00;97.90
84061;DHT22;74149;44.650;10.926;2023-11-21T07:46:49;9.20;99.90
84061;DHT22;74149;44.650;10.926;2023-11-21T07:49:17;9.80;99.70
84061;DHT22;74149;44.650;10.926;2023-11-21T07:51:46;9.80;99.90
84061;DHT22;74149;44.650;10.926;2023-11-21T07:54:14;10.00;97.70
84061;DHT22;74149;44.650;10.926;2023-11-21T07:59:10;9.50;99.90
84061;DHT22;74149;44.650;10.926;2023-11-21T08:04:07;9.30;99.90
84061;DHT22;74149;44.650;10.926;2023-11-21T08:06:35;9.40;97.80
84061;DHT22;74149;44.650;10.926;2023-11-21T08:16:27;10.00;98.30
84061;DHT22;74149;44.650;10.926;2023-11-21T08:21:22;9.80;99.90
84061;DHT22;74149;44.650;10.926;2023-11-21T08:23:53;9.90;93.20
84061;DHT22;74149;44.650;10.926;2023-11-21T08:26:22;9.60;99.90
84061;DHT22;74149;44.650;10.926;2023-11-21T08:28:50;9.50;99.90
84061;DHT22;74149;44.650;10.926;2023-11-21T08:31:26;10.40;98.30
84061;DHT22;74149;44.650;10.926;2023-11-21T08:33:51;9.90;99.90
84061;DHT22;74149;44.650;10.926;2023-11-21T08:36:20;9.80;98.80
84061;DHT22;74149;44.650;10.926;2023-11-21T08:38:50;9.60;99.40
84061;DHT22;74149;44.650;10.926;2023-11-21T08:41:20;10.00;92.70
84061;DHT22;74149;44.650;10.926;2023-11-21T08:46:20;10.30;99.90
84061;DHT22;74149;44.650;10.926;2023-11-21T08:48:48;10.50;97.20
84061;DHT22;74149;44.650;10.926;2023-11-21T08:51:18;10.10;98.30
84061;DHT22;74149;44.650;10.926;2023-11-21T08:53:46;10.50;96.10
84061;DHT22;74149;44.650;10.926;2023-11-21T08:58:42;10.50;95.30
84061;DHT22;74149;44.650;10.926;2023-11-21T09:03:39;10.40;99.60
84061;DHT22;74149;44.650;10.926;2023-11-21T09:06:08;10.30;99.50
84061;DHT22;74149;44.650;10.926;2023-11-21T09:08:36;10.10;99.70
84061;DHT22;74149;44.650;10.926;2023-11-21T09:11:05;10.10;99.70
84061;DHT22;74149;44.650;10.926;2023-11-21T09:13:34;10.40;99.90
84061;DHT22;74149;44.650;10.926;2023-11-21T09:16:03;9.80;99.80
84061;DHT22;74149;44.650;10.926;2023-11-21T09:21:00;10.40;99.90
84061;DHT22;74149;44.650;10.926;2023-11-21T09:28:25;10.10;99.70
84061;DHT22;74149;44.650;10.926;2023-11-21T09:30:54;10.60;99.80
84061;DHT22;74149;44.650;10.926;2023-11-21T09:33:22;10.30;99.90
84061;DHT22;74149;44.650;10.926;2023-11-21T09:35:52;10.20;99.90
84061;DHT22;74149;44.650;10.926;2023-11-21T09:38:20;10.00;99.10
84061;DHT22;74149;44.650;10.926;2023-11-21T09:40:49;10.80;99.60
84061;DHT22;74149;44.650;10.926;2023-11-21T09:43:17;9.80;98.90
84061;DHT22;74149;44.650;10.926;2023-11-21T09:45:46;10.50;99.90
84061;DHT22;74149;44.650;10.926;2023-11-21T09:50:43;10.40;99.60
84061;DHT22;74149;44.650;10.926;2023-11-21T09:53:19;10.40;99.20
84061;DHT22;74149;44.650;10.926;2023-11-21T09:55:50;10.70;99.00
84061;DHT22;74149;44.650;10.926;2023-11-21T09:58:19;10.20;98.50
84061;DHT22;74149;44.650;10.926;2023-11-21T10:00:52;11.00;98.80
84061;DHT22;74149;44.650;10.926;2023-11-21T10:03:20;10.40;98.80
84061;DHT22;74149;44.650;10.926;2023-11-21T10:08:18;10.50;99.30
84061;DHT22;74149;44.650;10.926;2023-11-21T10:10:48;11.20;99.10
84061;DHT22;74149;44.650;10.926;2023-11-21T10:15:49;10.50;98.30
84061;DHT22;74149;44.650;10.926;2023-11-21T10:18:17;11.10;98.40
84061;DHT22;74149;44.650;10.926;2023-11-21T10:20:45;10.70;98.30
84061;DHT22;74149;44.650;10.926;2023-11-21T10:23:15;10.80;95.00
84061;DHT22;74149;44.650;10.926;2023-11-21T10:25:43;10.30;97.80
84061;DHT22;74149;44.650;10.926;2023-11-21T10:28:12;10.50;97.20
84061;DHT22;74149;44.650;10.926;2023-11-21T10:30:40;10.50;98.30
84061;DHT22;74149;44.650;10.926;2023-11-21T10:33:09;10.70;97.50
84061;DHT22;74149;44.650;10.926;2023-11-21T10:35:48;11.00;96.20
84061;DHT22;74149;44.650;10.926;2023-11-21T10:38:20;10.60;98.10
84061;DHT22;74149;44.650;10.926;2023-11-21T10:40:53;11.00;98.30
84061;DHT22;74149;44.650;10.926;2023-11-21T10:43:26;10.40;98.50
84061;DHT22;74149;44.650;10.926;2023-11-21T10:55:48;10.30;97.40
84061;DHT22;74149;44.650;10.926;2023-11-21T10:58:17;10.80;98.90
84061;DHT22;74149;44.650;10.926;2023-11-21T11:05:44;11.40;98.80
84061;DHT22;74149;44.650;10.926;2023-11-21T11:08:15;10.60;98.30
84061;DHT22;74149;44.650;10.926;2023-11-21T11:10:49;11.00;91.80
84061;DHT22;74149;44.650;10.926;2023-11-21T11:18:11;11.50;97.30
84061;DHT22;74149;44.650;10.926;2023-11-21T11:31:51;11.50;90.80
84061;DHT22;74149;44.650;10.926;2023-11-21T11:34:36;11.60;90.50
84061;DHT22;74149;44.650;10.926;2023-11-21T11:37:05;11.60;90.60
84061;DHT22;74149;44.650;10.926;2023-11-21T11:39:39;12.00;93.00
84061;DHT22;74149;44.650;10.926;2023-11-21T11:42:13;11.50;93.40
84061;DHT22;74149;44.650;10.926;2023-11-21T11:47:32;12.20;93.80
84061;DHT22;74149;44.650;10.926;2023-11-21T11:50:19;11.70;93.50
84061;DHT22;74149;44.650;10.926;2023-11-21T11:57:55;11.60;94.40
84061;DHT22;74149;44.650;10.926;2023-11-21T12:08:05;11.20;94.00
84061;DHT22;74149;44.650;10.926;2023-11-21T12:10:35;11.90;91.70
84061;DHT22;74149;44.650;10.926;2023-11-21T12:15:35;11.80;94.60
84061;DHT22;74149;44.650;10.926;2023-11-21T12:18:04;10.90;91.80
84061;DHT22;74149;44.650;10.926;2023-11-21T12:20:33;11.00;95.30
84061;DHT22;74149;44.650;10.926;2023-11-21T12:25:32;12.00;94.90
84061;DHT22;74149;44.650;10.926;2023-11-21T12:30:30;12.20;92.20
84061;DHT22;74149;44.650;10.926;2023-11-21T12:32:59;11.50;92.70
84061;DHT22;74149;44.650;10.926;2023-11-21T12:40:26;12.00;93.40
84061;DHT22;74149;44.650;10.926;2023-11-21T12:42:58;12.00;92.70
84061;DHT22;74149;44.650;10.926;2023-11-21T12:45:28;11.40;91.90
84061;DHT22;74149;44.650;10.926;2023-11-21T12:50:28;11.70;91.20
84061;DHT22;74149;44.650;10.926;2023-11-21T12:53:08;12.30;91.40
84061;DHT22;74149;44.650;10.926;2023-11-21T12:58:09;11.70;86.30
84061;DHT22;74149;44.650;10.926;2023-11-21T13:00:40;11.70;86.80
84061;DHT22;74149;44.650;10.926;2023-11-21T13:03:10;11.60;87.30
84061;DHT22;74149;44.650;10.926;2023-11-21T13:05:40;11.70;88.80
84061;DHT22;74149;44.650;10.926;2023-11-21T13:08:10;11.80;88.30
84061;DHT22;74149;44.650;10.926;2023-11-21T13:10:44;11.80;88.00
84061;DHT22;74149;44.650;10.926;2023-11-21T13:13:14;11.90;88.20
84061;DHT22;74149;44.650;10.926;2023-11-21T13:15:54;12.00;87.80
84061;DHT22;74149;44.650;10.926;2023-11-21T13:18:28;11.90;88.20
84061;DHT22;74149;44.650;10.926;2023-11-21T13:20:59;12.00;86.10
84061;DHT22;74149;44.650;10.926;2023-11-21T13:23:28;11.90;86.60
84061;DHT22;74149;44.650;10.926;2023-11-21T13:25:56;11.90;88.30
84061;DHT22;74149;44.650;10.926;2023-11-21T13:28:25;11.90;87.20
84061;DHT22;74149;44.650;10.926;2023-11-21T13:30:54;11.90;87.00
84061;DHT22;74149;44.650;10.926;2023-11-21T13:33:24;11.80;87.30
84061;DHT22;74149;44.650;10.926;2023-11-21T13:35:54;11.70;87.90
84061;DHT22;74149;44.650;10.926;2023-11-21T13:38:23;11.70;88.80
84061;DHT22;74149;44.650;10.926;2023-11-21T13:40:53;11.70;87.50
84061;DHT22;74149;44.650;10.926;2023-11-21T13:43:23;11.70;87.40
84061;DHT22;74149;44.650;10.926;2023-11-21T13:45:53;11.80;87.20
84061;DHT22;74149;44.650;10.926;2023-11-21T13:48:29;11.80;86.00
84061;DHT22;74149;44.650;10.926;2023-11-21T13:51:02;11.80;87.30
84061;DHT22;74149;44.650;10.926;2023-11-21T13:53:32;11.80;86.90
84061;DHT22;74149;44.650;10.926;2023-11-21T13:56:01;11.70;86.10
84061;DHT22;74149;44.650;10.926;2023-11-21T13:58:29;11.70;86.60
84061;DHT22;74149;44.650;10.926;2023-11-21T14:01:15;11.80;86.20
84061;DHT22;74149;44.650;10.926;2023-11-21T14:04:03;11.70;85.80
84061;DHT22;74149;44.650;10.926;2023-11-21T14:06:37;11.60;86.70
84061;DHT22;74149;44.650;10.926;2023-11-21T14:09:10;11.60;87.10
84061;DHT22;74149;44.650;10.926;2023-11-21T14:11:41;12.90;88.10
84061;DHT22;74149;44.650;10.926;2023-11-21T14:14:10;11.60;87.70
84061;DHT22;74149;44.650;10.926;2023-11-21T14:16:38;11.60;87.00
84061;DHT22;74149;44.650;10.926;2023-11-21T14:19:06;11.50;87.40
84061;DHT22;74149;44.650;10.926;2023-11-21T14:21:35;11.40;88.00
84061;DHT22;74149;44.650;10.926;2023-11-21T14:24:04;11.40;89.20
84061;DHT22;74149;44.650;10.926;2023-11-21T14:26:35;11.40;89.00
84061;DHT22;74149;44.650;10.926;2023-11-21T14:29:04;11.40;89.00
84061;DHT22;74149;44.650;10.926;2023-11-21T14:31:32;11.40;88.80
84061;DHT22;74149;44.650;10.926;2023-11-21T14:34:01;11.90;98.90
84061;DHT22;74149;44.650;10.926;2023-11-21T14:36:29;11.50;88.20
84061;DHT22;74149;44.650;10.926;2023-11-21T14:38:58;11.50;88.70
84061;DHT22;74149;44.650;10.926;2023-11-21T14:41:27;11.60;89.30
84061;DHT22;74149;44.650;10.926;2023-11-21T14:43:56;11.60;89.30
84061;DHT22;74149;44.650;10.926;2023-11-21T14:46:24;11.60;90.00
84061;DHT22;74149;44.650;10.926;2023-11-21T14:48:53;11.70;89.50
84061;DHT22;74149;44.650;10.926;2023-11-21T14:51:22;11.70;89.20
84061;DHT22;74149;44.650;10.926;2023-11-21T14:54:02;11.70;88.70
84061;DHT22;74149;44.650;10.926;2023-11-21T14:56:36;11.60;88.90
84061;DHT22;74149;44.650;10.926;2023-11-21T14:59:05;11.60;89.70
84061;DHT22;74149;44.650;10.926;2023-11-21T15:01:35;11.60;90.00
84061;DHT22;74149;44.650;10.926;2023-11-21T15:04:13;11.70;89.20
84061;DHT22;74149;44.650;10.926;2023-11-21T15:06:59;11.70;90.00
84061;DHT22;74149;44.650;10.926;2023-11-21T15:09:27;11.70;89.70
84061;DHT22;74149;44.650;10.926;2023-11-21T15:12:01;11.70;89.00
84061;DHT22;74149;44.650;10.926;2023-11-21T15:14:47;11.60;88.60
84061;DHT22;74149;44.650;10.926;2023-11-21T15:17:18;11.60;88.40
84061;DHT22;74149;44.650;10.926;2023-11-21T15:19:48;11.60;88.90
84061;DHT22;74149;44.650;10.926;2023-11-21T15:22:17;11.60;91.40
84061;DHT22;74149;44.650;10.926;2023-11-21T15:24:45;11.50;89.10
84061;DHT22;74149;44.650;10.926;2023-11-21T15:27:16;11.40;89.30
84061;DHT22;74149;44.650;10.926;2023-11-21T15:29:45;11.40;89.90
84061;DHT22;74149;44.650;10.926;2023-11-21T15:32:13;11.30;89.40
84061;DHT22;74149;44.650;10.926;2023-11-21T15:34:41;11.30;89.50
84061;DHT22;74149;44.650;10.926;2023-11-21T15:37:09;11.20;89.50
84061;DHT22;74149;44.650;10.926;2023-11-21T15:39:39;11.30;89.80
84061;DHT22;74149;44.650;10.926;2023-11-21T15:42:07;11.20;90.30
84061;DHT22;74149;44.650;10.926;2023-11-21T15:44:36;11.20;90.40
84061;DHT22;74149;44.650;10.926;2023-11-21T15:47:08;11.30;90.10
84061;DHT22;74149;44.650;10.926;2023-11-21T15:49:37;11.30;90.20
84061;DHT22;74149;44.650;10.926;2023-11-21T15:52:06;11.30;90.10
84061;DHT22;74149;44.650;10.926;2023-11-21T15:54:35;11.30;90.00
84061;DHT22;74149;44.650;10.926;2023-11-21T15:57:05;11.40;90.00
84061;DHT22;74149;44.650;10.926;2023-11-21T15:59:34;11.40;89.70
84061;DHT22;74149;44.650;10.926;2023-11-21T16:02:02;11.40;88.80
84061;DHT22;74149;44.650;10.926;2023-11-21T16:04:34;11.50;88.00
84061;DHT22;74149;44.650;10.926;2023-11-21T16:07:04;11.50;87.70
84061;DHT22;74149;44.650;10.926;2023-11-21T16:09:34;11.40;87.20
84061;DHT22;74149;44.650;10.926;2023-11-21T16:12:05;11.40;87.00
84061;DHT22;74149;44.650;10.926;2023-11-21T16:14:35;11.30;87.60
84061;DHT22;74149;44.650;10.926;2023-11-21T16:17:04;11.20;87.30
84061;DHT22;74149;44.650;10.926;2023-11-21T16:19:38;11.30;87.90
84061;DHT22;74149;44.650;10.926;2023-11-21T16:22:06;11.30;88.00
84061;DHT22;74149;44.650;10.926;2023-11-21T16:24:34;11.30;87.50
84061;DHT22;74149;44.650;10.926;2023-11-21T16:27:03;11.20;87.40
84061;DHT22;74149;44.650;10.926;2023-11-21T16:29:33;11.10;88.40
84061;DHT22;74149;44.650;10.926;2023-11-21T16:32:01;11.10;89.10
84061;DHT22;74149;44.650;10.926;2023-11-21T16:34:30;11.10;88.80
84061;DHT22;74149;44.650;10.926;2023-11-21T16:36:58;11.00;88.90
84061;DHT22;74149;44.650;10.926;2023-11-21T16:39:26;10.90;89.70
84061;DHT22;74149;44.650;10.926;2023-11-21T16:41:54;10.90;89.20
84061;DHT22;74149;44.650;10.926;2023-11-21T16:44:23;10.90;89.60
84061;DHT22;74149;44.650;10.926;2023-11-21T16:46:51;10.90;90.00
84061;DHT22;74149;44.650;10.926;2023-11-21T16:49:27;11.40;92.50
84061;DHT22;74149;44.650;10.926;2023-11-21T16:51:56;10.90;89.60
84061;DHT22;74149;44.650;10.926;2023-11-21T16:54:24;10.80;92.90
84061;DHT22;74149;44.650;10.926;2023-11-21T16:56:52;11.20;92.50
84061;DHT22;74149;44.650;10.926;2023-11-21T16:59:21;11.00;92.60
84061;DHT22;74149;44.650;10.926;2023-11-21T17:01:50;10.30;92.50
84061;DHT22;74149;44.650;10.926;2023-11-21T17:06:49;11.20;93.60
84061;DHT22;74149;44.650;10.926;2023-11-21T17:09:17;10.20;93.90
84061;DHT22;74149;44.650;10.926;2023-11-21T17:11:49;10.20;94.00
84061;DHT22;74149;44.650;10.926;2023-11-21T17:14:18;10.40;94.20
84061;DHT22;74149;44.650;10.926;2023-11-21T17:16:47;10.90;95.00
84061;DHT22;74149;44.650;10.926;2023-11-21T17:21:45;10.50;94.90
84061;DHT22;74149;44.650;10.926;2023-11-21T17:24:13;11.00;94.70
84061;DHT22;74149;44.650;10.926;2023-11-21T17:26:43;10.70;95.20
84061;DHT22;74149;44.650;10.926;2023-11-21T17:29:11;10.30;95.10
84061;DHT22;74149;44.650;10.926;2023-11-21T17:31:40;10.60;96.50
84061;DHT22;74149;44.650;10.926;2023-11-21T17:39:05;10.70;96.70
84061;DHT22;74149;44.650;10.926;2023-11-21T17:41:35;10.20;97.00
84061;DHT22;74149;44.650;10.926;2023-11-21T17:49:00;10.90;94.50
84061;DHT22;74149;44.650;10.926;2023-11-21T17:51:27;10.80;97.00
84061;DHT22;74149;44.650;10.926;2023-11-21T17:53:56;10.80;97.40
84061;DHT22;74149;44.650;10.926;2023-11-21T17:56:25;10.00;97.50
84061;DHT22;74149;44.650;10.926;2023-11-21T18:01:23;10.20;98.20
84061;DHT22;74149;44.650;10.926;2023-11-21T18:03:53;10.60;98.50
84061;DHT22;74149;44.650;10.926;2023-11-21T18:06:21;10.40;98.40
84061;DHT22;74149;44.650;10.926;2023-11-21T18:08:49;10.80;98.70
84061;DHT22;74149;44.650;10.926;2023-11-21T18:16:14;10.90;99.60
84061;DHT22;74149;44.650;10.926;2023-11-21T18:18:42;11.10;98.60
84061;DHT22;74149;44.650;10.926;2023-11-21T18:23:37;11.30;99.20
84061;DHT22;74149;44.650;10.926;2023-11-21T18:26:05;10.50;97.40
84061;DHT22;74149;44.650;10.926;2023-11-21T18:31:03;10.50;99.90
84061;DHT22;74149;44.650;10.926;2023-11-21T18:33:30;11.00;99.90
84061;DHT22;74149;44.650;10.926;2023-11-21T18:35:58;11.20;99.90
84061;DHT22;74149;44.650;10.926;2023-11-21T18:38:26;10.50;99.80
84061;DHT22;74149;44.650;10.926;2023-11-21T18:43:22;11.10;93.20
84061;DHT22;74149;44.650;10.926;2023-11-21T18:45:50;10.90;93.60
84061;DHT22;74149;44.650;10.926;2023-11-21T18:48:18;11.00;93.90
84061;DHT22;74149;44.650;10.926;2023-11-21T18:50:46;10.90;93.60
84061;DHT22;74149;44.650;10.926;2023-11-21T18:53:16;10.90;93.60
84061;DHT22;74149;44.650;10.926;2023-11-21T18:55:44;10.90;93.50
84061;DHT22;74149;44.650;10.926;2023-11-21T18:58:13;10.80;93.80
84061;DHT22;74149;44.650;10.926;2023-11-21T19:00:42;10.70;93.60
84061;DHT22;74149;44.650;10.926;2023-11-21T19:03:10;10.70;94.10
84061;DHT22;74149;44.650;10.926;2023-11-21T19:05:39;10.70;93.70
84061;DHT22;74149;44.650;10.926;2023-11-21T19:08:07;10.60;93.90
84061;DHT22;74149;44.650;10.926;2023-11-21T19:10:36;10.70;93.70
84061;DHT22;74149;44.650;10.926;2023-11-21T19:13:04;10.80;93.70
84061;DHT22;74149;44.650;10.926;2023-11-21T19:15:33;10.80;93.70
84061;DHT22;74149;44.650;10.926;2023-11-21T19:18:02;10.80;93.50
84061;DHT22;74149;44.650;10.926;2023-11-21T19:20:30;10.80;93.50
84061;DHT22;74149;44.650;10.926;2023-11-21T19:22:59;10.80;93.50
84061;DHT22;74149;44.650;10.926;2023-11-21T19:25:27;10.70;93.80
84061;DHT22;74149;44.650;10.926;2023-11-21T19:27:57;10.60;94.00
84061;DHT22;74149;44.650;10.926;2023-11-21T19:30:25;10.70;93.90
84061;DHT22;74149;44.650;10.926;2023-11-21T19:32:54;10.70;93.80
84061;DHT22;74149;44.650;10.926;2023-11-21T19:35:24;10.70;93.80
84061;DHT22;74149;44.650;10.926;2023-11-21T19:37:53;10.80;93.60
84061;DHT22;74149;44.650;10.926;2023-11-21T19:40:21;10.80;93.80
84061;DHT22;74149;44.650;10.926;2023-11-21T19:42:50;10.80;93.60
84061;DHT22;74149;44.650;10.926;2023-11-21T19:45:18;10.90;93.60
84061;DHT22;74149;44.650;10.926;2023-11-21T19:47:46;10.90;93.40
84061;DHT22;74149;44.650;10.926;2023-11-21T19:50:15;10.90;93.50
84061;DHT22;74149;44.650;10.926;2023-11-21T19:52:43;10.80;93.90
84061;DHT22;74149;44.650;10.926;2023-11-21T19:55:11;10.90;93.90
84061;DHT22;74149;44.650;10.926;2023-11-21T20:00:10;11.10;93.20